Time;durP1;ratioP1;P1;durP2;ratioP2;P2;SDS_P1;SDS_P2;PMS_P1;PMS_P2;Temp;Humidity;BMP_temperature;BMP_pressure;BME280_temperature;BME280_humidity;BME280_pressure;Samples;Min_cycle;Max_cycle;Signal;HPM_P1;HPM_P2
2023/03/16 00:01:40;;;;;;;5.60;1.23;;;;;;;1.15;100.00;101556.84;5038357;28;21040;-79
2023/03/16 00:04:08;;;;;;;7.50;1.97;;;;;;;1.08;100.00;101556.09;5039154;28;20474;-79
2023/03/16 00:06:50;;;;;;;7.73;1.60;;;;;;;1.07;100.00;101559.81;5038546;28;20439;-79
2023/03/16 00:09:16;;;;;;;6.77;1.70;;;;;;;1.06;100.00;101563.47;5038994;28;20518;-79
2023/03/16 00:11:43;;;;;;;6.40;1.70;;;;;;;0.97;100.00;101557.56;5038746;28;20443;-79
2023/03/16 00:14:10;;;;;;;6.27;1.60;;;;;;;0.93;100.00;101557.22;5038567;28;20465;-79
2023/03/16 00:16:36;;;;;;;9.30;1.53;;;;;;;0.88;100.00;101564.19;5038993;28;20463;-79
2023/03/16 00:19:04;;;;;;;5.17;1.40;;;;;;;0.91;100.00;101566.44;5039054;28;20550;-79
2023/03/16 00:21:34;;;;;;;7.43;1.60;;;;;;;0.90;100.00;101570.97;5038926;28;20459;-79
2023/03/16 00:24:02;;;;;;;6.83;1.77;;;;;;;0.94;100.00;101568.69;5038214;28;20493;-79
2023/03/16 00:26:28;;;;;;;6.70;1.90;;;;;;;0.93;100.00;101569.69;5038557;28;20493;-79
2023/03/16 00:28:55;;;;;;;4.80;1.33;;;;;;;0.89;100.00;101573.84;5038760;28;20467;-79
2023/03/16 00:31:23;;;;;;;5.70;1.33;;;;;;;0.86;100.00;101569.75;5039151;28;20482;-79
2023/03/16 00:33:51;;;;;;;7.43;2.20;;;;;;;0.85;100.00;101569.97;5037971;28;20443;-79
2023/03/16 00:36:17;;;;;;;8.03;2.23;;;;;;;0.85;100.00;101572.63;5038961;28;20501;-79
2023/03/16 00:38:48;;;;;;;7.90;1.40;;;;;;;0.84;100.00;101571.81;5038011;28;20891;-79
2023/03/16 00:41:15;;;;;;;6.20;1.30;;;;;;;0.91;100.00;101571.78;5038622;28;20447;-79
2023/03/16 00:43:44;;;;;;;6.60;1.50;;;;;;;0.83;100.00;101575.50;5038108;28;20575;-79
2023/03/16 00:46:12;;;;;;;6.27;1.33;;;;;;;0.77;100.00;101568.34;5038125;28;20455;-79
2023/03/16 00:48:41;;;;;;;8.27;1.40;;;;;;;0.81;100.00;101568.75;5038180;28;20550;-79
2023/03/16 00:51:11;;;;;;;9.97;1.80;;;;;;;0.79;100.00;101573.47;5038024;28;20474;-79
2023/03/16 00:53:40;;;;;;;4.70;1.10;;;;;;;0.85;100.00;101573.44;5038400;28;20439;-79
2023/03/16 00:56:08;;;;;;;4.70;1.27;;;;;;;0.95;100.00;101567.66;5038387;28;20539;-79
2023/03/16 00:58:36;;;;;;;5.60;1.80;;;;;;;0.97;100.00;101570.91;5038565;28;20518;-79
2023/03/16 01:01:04;;;;;;;4.80;1.13;;;;;;;0.97;100.00;101571.75;5037397;28;20455;-79
2023/03/16 01:03:31;;;;;;;9.33;2.10;;;;;;;0.97;100.00;101578.91;5037618;28;20494;-79
2023/03/16 01:05:58;;;;;;;6.80;2.13;;;;;;;0.98;100.00;101585.91;5037632;28;20468;-79
2023/03/16 01:08:26;;;;;;;5.70;1.70;;;;;;;1.02;100.00;101579.13;5037291;28;20467;-79
2023/03/16 01:10:54;;;;;;;7.80;2.13;;;;;;;0.99;100.00;101576.88;5037823;28;20466;-79
2023/03/16 01:13:22;;;;;;;7.20;1.77;;;;;;;0.97;100.00;101574.44;5037889;28;20431;-79
2023/03/16 01:15:50;;;;;;;8.23;1.50;;;;;;;0.95;100.00;101581.81;5038104;28;20455;-79
2023/03/16 01:18:17;;;;;;;7.80;1.50;;;;;;;0.91;100.00;101577.91;5037837;28;20467;-79
2023/03/16 01:20:49;;;;;;;7.30;1.43;;;;;;;0.91;100.00;101588.59;5037498;28;20502;-79
2023/03/16 01:23:16;;;;;;;8.30;2.00;;;;;;;0.90;100.00;101589.63;5037712;28;20996;-79
2023/03/16 01:25:43;;;;;;;7.23;1.50;;;;;;;0.87;100.00;101590.03;5037996;28;20447;-79
2023/03/16 01:28:10;;;;;;;5.87;1.57;;;;;;;0.82;100.00;101586.38;5038549;28;20495;-79
2023/03/16 01:30:39;;;;;;;6.63;1.87;;;;;;;0.78;100.00;101582.50;5038331;28;20443;-79
2023/03/16 01:33:05;;;;;;;5.87;1.70;;;;;;;0.72;100.00;101579.66;5038376;28;20478;-79
2023/03/16 01:35:32;;;;;;;5.50;1.57;;;;;;;0.73;100.00;101581.28;5038811;28;20447;-79
2023/03/16 01:37:58;;;;;;;7.83;1.43;;;;;;;0.74;100.00;101572.25;5038725;28;20506;-78
2023/03/16 01:40:25;;;;;;;7.67;1.87;;;;;;;0.77;100.00;101575.53;5038598;28;21056;-79
2023/03/16 01:43:00;;;;;;;5.17;1.50;;;;;;;0.71;100.00;101569.22;5039410;28;20577;-79
2023/03/16 01:46:09;;;;;;;8.77;2.40;;;;;;;0.73;100.00;101570.63;5039190;28;20431;-79
2023/03/16 01:48:39;;;;;;;10.80;1.73;;;;;;;0.64;100.00;101571.88;5039880;28;20467;-79
2023/03/16 01:51:09;;;;;;;7.20;1.87;;;;;;;0.65;100.00;101557.50;5040275;28;20471;-79
2023/03/16 01:53:38;;;;;;;6.40;1.70;;;;;;;0.69;100.00;101565.91;5038347;28;20967;-78
2023/03/16 01:56:09;;;;;;;8.83;2.00;;;;;;;0.68;100.00;101573.09;5036551;28;20454;-78
2023/03/16 01:58:37;;;;;;;5.90;1.80;;;;;;;0.64;100.00;101566.56;5036705;28;20467;-78
2023/03/16 02:01:05;;;;;;;5.80;1.60;;;;;;;0.67;100.00;101573.31;5037659;28;20467;-79
2023/03/16 02:03:33;;;;;;;5.43;1.47;;;;;;;0.68;100.00;101582.94;5036683;28;20570;-79
2023/03/16 02:06:06;;;;;;;5.23;1.30;;;;;;;0.69;100.00;101569.41;5036486;28;20443;-79
2023/03/16 02:08:33;;;;;;;8.77;1.70;;;;;;;0.62;100.00;101571.28;5036176;28;20495;-78
2023/03/16 02:11:08;;;;;;;5.63;1.23;;;;;;;0.64;100.00;101571.88;5066305;22;20465;-78
2023/03/16 02:13:36;;;;;;;14.10;1.77;;;;;;;0.64;100.00;101563.88;5016478;28;20444;-78
2023/03/16 02:16:05;;;;;;;9.70;1.73;;;;;;;0.64;100.00;101563.06;5015881;28;20436;-78
2023/03/16 02:18:32;;;;;;;6.20;1.83;;;;;;;0.64;100.00;101569.22;5016271;28;20453;-80
2023/03/16 02:21:06;;;;;;;5.50;1.80;;;;;;;0.65;100.00;101557.50;5017409;28;20930;-80
2023/03/16 02:23:33;;;;;;;5.07;1.40;;;;;;;0.64;100.00;101565.72;5017838;28;20475;-80
2023/03/16 02:26:10;;;;;;;10.30;2.00;;;;;;;0.64;100.00;101563.06;5015836;28;20800;-78
2023/03/16 02:28:47;;;;;;;5.50;1.27;;;;;;;0.63;100.00;101556.91;5014889;28;20491;-80
2023/03/16 02:31:16;;;;;;;5.30;1.50;;;;;;;0.66;100.00;101564.47;5015335;28;20451;-79
2023/03/16 02:33:44;;;;;;;6.27;1.67;;;;;;;0.65;100.00;101567.38;5014893;28;20546;-79
2023/03/16 02:36:13;;;;;;;5.10;1.40;;;;;;;0.65;100.00;101556.69;5016309;28;20879;-79
2023/03/16 02:38:40;;;;;;;6.80;2.03;;;;;;;0.63;100.00;101559.59;5015685;28;20470;-79
2023/03/16 02:41:13;;;;;;;8.43;1.93;;;;;;;0.63;100.00;101564.09;5015702;28;20523;-79
2023/03/16 02:43:43;;;;;;;5.70;1.50;;;;;;;0.61;100.00;101566.97;5015251;28;20552;-80
2023/03/16 02:46:11;;;;;;;7.60;2.17;;;;;;;0.61;100.00;101566.16;5015135;28;20813;-79
2023/03/16 02:48:44;;;;;;;5.90;2.07;;;;;;;0.55;100.00;101562.47;5015659;28;20514;-79
2023/03/16 02:51:11;;;;;;;6.63;2.00;;;;;;;0.59;100.00;101570.88;5015586;28;20981;-79
2023/03/16 02:53:38;;;;;;;5.90;1.60;;;;;;;0.57;100.00;101571.06;5015598;28;20451;-79
2023/03/16 02:56:05;;;;;;;6.70;2.10;;;;;;;0.55;100.00;101575.81;5015991;28;20534;-79
2023/03/16 02:58:32;;;;;;;7.37;1.57;;;;;;;0.58;100.00;101563.91;5018828;28;20456;-79
2023/03/16 03:00:59;;;;;;;13.60;1.90;;;;;;;0.59;100.00;101574.38;5019248;28;20436;-79
2023/03/16 03:03:47;;;;;;;8.23;1.60;;;;;;;0.48;100.00;101583.81;5021540;28;20559;-79
2023/03/16 03:06:15;;;;;;;14.30;2.33;;;;;;;0.56;100.00;101585.44;5013345;28;20926;-79
2023/03/16 03:08:42;;;;;;;7.03;1.43;;;;;;;0.54;100.00;101579.50;5018504;28;20482;-79
2023/03/16 03:11:09;;;;;;;6.90;1.53;;;;;;;0.53;100.00;101579.69;5018037;28;20456;-79
2023/03/16 03:13:37;;;;;;;5.10;1.20;;;;;;;0.45;99.92;101586.91;5017736;28;20541;-79
2023/03/16 03:16:03;;;;;;;8.13;1.57;;;;;;;0.41;100.00;101590.22;5017934;28;21014;-79
2023/03/16 03:18:30;;;;;;;5.53;1.40;;;;;;;0.38;100.00;101587.94;5017494;28;21007;-79
2023/03/16 03:20:57;;;;;;;4.90;1.40;;;;;;;0.33;100.00;101601.91;5017482;28;20538;-79
2023/03/16 03:23:25;;;;;;;7.10;1.87;;;;;;;0.33;100.00;101604.56;5017151;28;20503;-79
2023/03/16 03:25:52;;;;;;;9.50;1.77;;;;;;;0.32;100.00;101600.25;5017456;28;20447;-79
2023/03/16 03:28:21;;;;;;;4.70;1.00;;;;;;;0.36;100.00;101606.81;5017102;28;20459;-79
2023/03/16 03:30:47;;;;;;;6.37;1.77;;;;;;;0.37;100.00;101602.31;5017471;28;20476;-79
2023/03/16 03:33:14;;;;;;;6.40;1.57;;;;;;;0.38;100.00;101601.28;5018872;28;20458;-79
2023/03/16 03:35:41;;;;;;;5.30;1.40;;;;;;;0.18;100.00;101602.13;5019036;28;20859;-79
2023/03/16 03:38:08;;;;;;;6.53;1.83;;;;;;;0.19;100.00;101603.75;5018919;28;20518;-79
2023/03/16 03:40:36;;;;;;;6.13;1.70;;;;;;;0.29;100.00;101615.84;5019371;28;20550;-79
2023/03/16 03:43:03;;;;;;;8.60;2.00;;;;;;;0.17;99.99;101615.63;5019407;28;20448;-79
2023/03/16 03:45:30;;;;;;;6.00;1.30;;;;;;;0.18;100.00;101615.47;5019662;28;20799;-79
2023/03/16 03:47:57;;;;;;;6.07;1.50;;;;;;;0.19;100.00;101616.28;5020517;28;20459;-79
2023/03/16 03:50:23;;;;;;;6.93;1.57;;;;;;;0.19;100.00;101617.09;5020512;28;20539;-79
2023/03/16 03:52:50;;;;;;;5.37;1.30;;;;;;;0.15;100.00;101605.19;5026026;28;20436;-79
2023/03/16 03:55:17;;;;;;;6.30;1.57;;;;;;;0.13;100.00;101604.56;5026249;28;20456;-79
2023/03/16 03:57:45;;;;;;;5.30;1.17;;;;;;;0.05;100.00;101610.13;5019760;28;20496;-79
2023/03/16 04:00:13;;;;;;;10.13;1.10;;;;;;;0.08;100.00;101604.38;5018881;28;20436;-79
2023/03/16 04:02:40;;;;;;;10.23;1.57;;;;;;;0.06;100.00;101609.09;5019062;28;20456;-79
2023/03/16 04:05:08;;;;;;;6.20;1.57;;;;;;;0.09;100.00;101603.38;5019474;28;20491;-79
2023/03/16 04:07:34;;;;;;;8.70;1.53;;;;;;;0.02;100.00;101610.53;5018997;28;20467;-79
2023/03/16 04:10:01;;;;;;;6.37;1.57;;;;;;;0.01;100.00;101610.75;5019021;28;20535;-79
2023/03/16 04:12:28;;;;;;;7.73;1.63;;;;;;;0.02;100.00;101612.38;5019164;28;20538;-79
2023/03/16 04:14:56;;;;;;;5.33;1.30;;;;;;;-0.08;100.00;101604.81;5018949;28;20527;-79
2023/03/16 04:17:23;;;;;;;6.63;2.20;;;;;;;-0.02;100.00;101609.31;5018244;28;20492;-79
2023/03/16 04:19:50;;;;;;;6.33;1.93;;;;;;;0.04;100.00;101605.00;5018720;28;20428;-79
2023/03/16 04:22:17;;;;;;;10.63;2.17;;;;;;;0.06;100.00;101609.09;5018482;28;20456;-78
2023/03/16 04:24:44;;;;;;;6.40;2.10;;;;;;;-0.02;100.00;101599.47;5018818;28;20491;-78
2023/03/16 04:27:11;;;;;;;5.67;1.80;;;;;;;0.02;100.00;101605.22;5018310;28;20555;-79
2023/03/16 04:29:38;;;;;;;6.00;1.70;;;;;;;-0.01;100.00;101598.44;5018746;28;20949;-79
2023/03/16 04:32:07;;;;;;;7.13;1.70;;;;;;;-0.07;100.00;101601.13;5019126;28;20448;-79
2023/03/16 04:34:34;;;;;;;6.60;1.70;;;;;;;-0.09;100.00;101603.16;5019509;28;20542;-79
2023/03/16 04:37:02;;;;;;;9.30;1.67;;;;;;;-0.14;100.00;101605.63;5019028;28;20463;-79
2023/03/16 04:39:28;;;;;;;5.07;1.30;;;;;;;-0.08;100.00;101612.81;5019429;28;20448;-79
2023/03/16 04:41:55;;;;;;;5.60;1.10;;;;;;;-0.10;100.00;101614.84;5020016;28;20442;-79
2023/03/16 04:44:22;;;;;;;6.10;1.50;;;;;;;-0.07;100.00;101609.94;5019081;28;20534;-79
2023/03/16 04:46:48;;;;;;;6.23;1.43;;;;;;;-0.13;100.00;101620.59;5018575;28;21010;-79
2023/03/16 04:49:16;;;;;;;4.60;1.20;;;;;;;-0.10;100.00;101615.66;5019859;28;20480;-79
2023/03/16 04:51:43;;;;;;;5.10;1.53;;;;;;;-0.14;100.00;101611.75;5018515;28;20532;-79
2023/03/16 04:54:10;;;;;;;7.50;1.90;;;;;;;-0.12;100.00;101623.03;5019022;28;20479;-79
2023/03/16 04:56:40;;;;;;;5.97;2.17;;;;;;;-0.17;100.00;101619.34;5019596;28;20962;-79
2023/03/16 04:59:06;;;;;;;5.27;1.70;;;;;;;-0.15;100.00;101623.44;5018597;28;20478;-79
2023/03/16 05:01:33;;;;;;;8.43;2.40;;;;;;;-0.37;100.00;101622.81;5018907;28;20483;-79
2023/03/16 05:04:01;;;;;;;13.53;2.03;;;;;;;-0.41;100.00;101629.56;5019271;28;20515;-79
2023/03/16 05:06:29;;;;;;;9.13;1.97;;;;;;;-0.43;100.00;101633.44;5019354;28;20444;-79
2023/03/16 05:08:59;;;;;;;5.83;1.27;;;;;;;-0.39;100.00;101626.69;5019246;28;20519;-79
2023/03/16 05:11:25;;;;;;;6.00;1.60;;;;;;;-0.43;100.00;101628.94;5018880;28;20460;-79
2023/03/16 05:13:52;;;;;;;5.20;1.23;;;;;;;-0.47;100.00;101627.72;5018427;28;20432;-79
2023/03/16 05:16:19;;;;;;;6.20;1.53;;;;;;;-0.42;100.00;101625.25;5018387;28;20526;-79
2023/03/16 05:18:45;;;;;;;6.40;1.47;;;;;;;-0.46;100.00;101634.66;5018253;28;20966;-79
2023/03/16 05:21:12;;;;;;;5.63;1.30;;;;;;;-0.56;100.00;101623.59;5018510;28;20476;-79
2023/03/16 05:23:40;;;;;;;9.10;1.80;;;;;;;-0.51;100.00;101631.78;5019003;28;21005;-79
2023/03/16 05:26:07;;;;;;;9.10;2.13;;;;;;;-0.47;100.00;101630.38;5020863;28;20514;-79
2023/03/16 05:28:34;;;;;;;9.00;1.73;;;;;;;-0.48;100.00;101635.91;5019416;28;20468;-79
2023/03/16 05:31:02;;;;;;;6.37;1.67;;;;;;;-0.58;100.00;101633.59;5019981;28;20468;-79
2023/03/16 05:33:29;;;;;;;7.10;1.90;;;;;;;-0.56;100.00;101635.06;5019967;28;20432;-79
2023/03/16 05:35:56;;;;;;;5.03;1.80;;;;;;;-0.69;100.00;101637.69;5020466;28;20884;-79
2023/03/16 05:38:23;;;;;;;5.80;1.80;;;;;;;-0.84;100.00;101629.88;5020223;28;20530;-79
2023/03/16 05:40:51;;;;;;;6.90;1.80;;;;;;;-0.76;100.00;101642.97;5019522;28;20467;-79
2023/03/16 05:43:19;;;;;;;4.90;1.23;;;;;;;-0.76;100.00;101636.84;5020875;28;20444;-79
2023/03/16 05:45:46;;;;;;;5.47;1.50;;;;;;;-0.88;100.00;101651.75;5020918;28;20480;-79
2023/03/16 05:48:13;;;;;;;6.47;1.73;;;;;;;-0.99;100.00;101647.78;5022053;28;20491;-79
2023/03/16 05:50:40;;;;;;;9.60;1.90;;;;;;;-0.92;100.00;101648.66;5022777;28;20458;-79
2023/03/16 05:53:07;;;;;;;5.77;1.40;;;;;;;-0.90;100.00;101651.09;5023323;28;20862;-79
2023/03/16 05:55:34;;;;;;;6.13;1.47;;;;;;;-0.83;100.00;101658.09;5023026;28;20494;-79
2023/03/16 05:58:02;;;;;;;6.10;1.90;;;;;;;-0.91;100.00;101652.94;5018574;28;20539;-79
2023/03/16 06:00:29;;;;;;;5.70;1.37;;;;;;;-0.87;100.00;101648.06;5017942;28;20543;-80
2023/03/16 06:02:56;;;;;;;10.30;1.77;;;;;;;-0.79;100.00;101659.34;5016937;28;20535;-79
2023/03/16 06:05:23;;;;;;;5.27;1.50;;;;;;;-0.81;100.00;101649.91;5017337;28;20574;-80
2023/03/16 06:07:50;;;;;;;6.07;1.40;;;;;;;-0.79;100.00;101659.34;5016844;28;20464;-80
2023/03/16 06:10:18;;;;;;;8.30;1.60;;;;;;;-0.84;100.00;101653.81;5016869;28;20455;-79
2023/03/16 06:12:45;;;;;;;5.60;1.60;;;;;;;-0.93;100.00;101659.47;5016642;28;20452;-80
2023/03/16 06:15:13;;;;;;;6.97;1.80;;;;;;;-0.87;100.00;101656.84;5017418;28;20542;-79
2023/03/16 06:17:41;;;;;;;5.80;1.33;;;;;;;-0.78;100.00;101658.31;5017100;28;20527;-80
2023/03/16 06:20:10;;;;;;;5.17;1.50;;;;;;;-0.78;100.00;101655.66;5017021;28;20459;-80
2023/03/16 06:22:37;;;;;;;5.30;1.40;;;;;;;-0.87;100.00;101661.34;5017132;28;20456;-79
2023/03/16 06:25:04;;;;;;;4.97;1.30;;;;;;;-0.89;100.00;101660.72;5016626;28;20515;-79
2023/03/16 06:27:30;;;;;;;4.90;1.10;;;;;;;-0.70;100.00;101664.50;5016434;28;20567;-79
2023/03/16 06:29:57;;;;;;;6.60;1.50;;;;;;;-0.60;100.00;101667.59;5016257;28;20527;-79
2023/03/16 06:32:25;;;;;;;5.00;1.40;;;;;;;-0.61;100.00;101669.44;5015635;28;20448;-79
2023/03/16 06:34:52;;;;;;;7.03;1.80;;;;;;;-0.57;100.00;101678.66;5016402;28;20523;-79
2023/03/16 06:37:19;;;;;;;6.87;1.40;;;;;;;-0.45;100.00;101670.88;5016378;28;20547;-79
2023/03/16 06:39:45;;;;;;;8.30;1.83;;;;;;;-0.42;100.00;101678.47;5016306;28;20452;-79
2023/03/16 06:42:12;;;;;;;5.40;1.40;;;;;;;-0.28;100.00;101682.81;5016672;28;20526;-79
2023/03/16 06:44:38;;;;;;;5.27;1.80;;;;;;;-0.23;100.00;101687.53;5016276;28;20567;-79
2023/03/16 06:47:05;;;;;;;5.37;1.57;;;;;;;-0.11;100.00;101690.41;5016411;28;20551;-79
2023/03/16 06:49:34;;;;;;;7.30;2.30;;;;;;;0.01;100.00;101688.81;5016140;28;20447;-79
2023/03/16 06:52:02;;;;;;;17.33;2.40;;;;;;;0.09;100.00;101685.09;5016606;28;20448;-80
2023/03/16 06:54:31;;;;;;;4.70;1.40;;;;;;;0.25;100.00;101690.84;5016655;28;20460;-79
2023/03/16 06:56:57;;;;;;;14.50;2.60;;;;;;;0.37;100.00;101699.06;5015850;28;20544;-79
2023/03/16 06:59:24;;;;;;;8.10;2.10;;;;;;;0.56;100.00;101694.72;5015151;28;20945;-79
2023/03/16 07:01:51;;;;;;;8.63;2.00;;;;;;;0.64;100.00;101707.03;5015752;28;20448;-79
2023/03/16 07:04:17;;;;;;;5.80;1.40;;;;;;;0.79;100.00;101709.44;5015502;28;20488;-79
2023/03/16 07:06:45;;;;;;;5.63;1.23;;;;;;;0.95;100.00;101701.81;5015130;28;20538;-79
2023/03/16 07:09:12;;;;;;;5.50;1.53;;;;;;;1.06;100.00;101713.69;5015589;28;20619;-79
2023/03/16 07:11:39;;;;;;;8.80;2.00;;;;;;;1.23;100.00;101711.38;5014847;28;20831;-79
2023/03/16 07:14:05;;;;;;;6.33;2.03;;;;;;;1.36;100.00;101710.50;5014757;28;20476;-79
2023/03/16 07:16:32;;;;;;;5.00;1.40;;;;;;;1.43;99.77;101709.47;5015706;28;20567;-78
2023/03/16 07:18:59;;;;;;;5.50;1.50;;;;;;;1.63;99.12;101712.00;5015386;28;20463;-78
2023/03/16 07:21:26;;;;;;;10.50;1.83;;;;;;;1.74;97.62;101716.69;5015396;28;20555;-79
2023/03/16 07:23:54;;;;;;;5.87;1.43;;;;;;;1.92;97.25;101717.81;5014760;28;20506;-80
2023/03/16 07:26:21;;;;;;;12.53;2.00;;;;;;;2.05;95.52;101725.75;5014785;28;20531;-80
2023/03/16 07:28:48;;;;;;;8.30;1.60;;;;;;;2.19;93.87;101732.63;5014401;28;20519;-80
2023/03/16 07:31:15;;;;;;;8.10;1.70;;;;;;;2.26;91.70;101730.75;5014338;28;20458;-80
2023/03/16 07:33:41;;;;;;;4.50;0.90;;;;;;;2.42;91.35;101733.91;5015458;28;20539;-80
2023/03/16 07:36:09;;;;;;;7.93;1.63;;;;;;;2.59;90.08;101737.66;5014900;28;20448;-80
2023/03/16 07:38:36;;;;;;;5.00;1.07;;;;;;;2.76;89.67;101736.06;5014218;28;20468;-80
2023/03/16 07:41:04;;;;;;;6.33;1.63;;;;;;;2.89;88.54;101734.31;5014675;28;20507;-79
2023/03/16 07:43:30;;;;;;;7.50;1.30;;;;;;;2.95;84.99;101738.75;5015477;28;20511;-80
2023/03/16 07:45:57;;;;;;;8.30;1.77;;;;;;;3.10;85.41;101738.38;5017692;28;20530;-80
2023/03/16 07:48:24;;;;;;;7.40;1.37;;;;;;;3.23;86.07;101736.41;5017567;28;20538;-80
2023/03/16 07:50:51;;;;;;;5.67;1.57;;;;;;;3.40;85.62;101736.59;5017911;28;20440;-81
2023/03/16 07:53:19;;;;;;;5.47;1.40;;;;;;;3.52;83.50;101747.38;5017641;28;20527;-82
2023/03/16 07:55:46;;;;;;;4.93;1.23;;;;;;;3.69;82.26;101740.38;5018985;28;20452;-81
2023/03/16 07:58:14;;;;;;;5.93;1.63;;;;;;;3.83;82.28;101738.31;5029020;28;20443;-80
2023/03/16 08:00:41;;;;;;;5.07;1.30;;;;;;;3.88;81.47;101743.00;5019083;28;20455;-80
2023/03/16 08:03:08;;;;;;;4.50;0.90;;;;;;;3.98;79.06;101756.66;5019382;28;20979;-81
2023/03/16 08:05:35;;;;;;;7.80;1.40;;;;;;;4.10;78.70;101751.34;5020635;28;21052;-80
2023/03/16 08:08:02;;;;;;;6.70;1.30;;;;;;;4.21;78.43;101750.56;5020287;28;20829;-80
2023/03/16 08:10:29;;;;;;;6.20;1.40;;;;;;;4.33;74.42;101755.94;5019195;28;20887;-80
2023/03/16 08:12:56;;;;;;;5.90;1.20;;;;;;;4.36;73.99;101745.56;5018877;28;20463;-80
2023/03/16 08:15:24;;;;;;;5.47;1.10;;;;;;;4.41;74.03;101747.56;5019932;28;20482;-81
2023/03/16 08:17:51;;;;;;;5.57;1.13;;;;;;;4.52;73.31;101750.28;5019721;28;20468;-78
2023/03/16 08:20:18;;;;;;;5.30;0.90;;;;;;;4.60;73.54;101757.13;5016415;28;20999;-79
2023/03/16 08:22:45;;;;;;;5.17;0.90;;;;;;;4.70;71.52;101752.03;5016839;28;20479;-78
2023/03/16 08:25:12;;;;;;;4.50;0.77;;;;;;;4.79;71.61;101756.00;5016657;28;20852;-79
2023/03/16 08:27:39;;;;;;;5.67;1.00;;;;;;;4.89;71.83;101758.09;5016534;28;20475;-78
2023/03/16 08:30:10;;;;;;;5.33;1.30;;;;;;;4.94;70.07;101760.91;5016667;28;20495;-79
2023/03/16 08:32:39;;;;;;;5.50;0.90;;;;;;;5.09;68.50;101757.75;5016590;28;20879;-78
2023/03/16 08:35:07;;;;;;;7.00;1.00;;;;;;;5.14;67.65;101759.72;5016338;28;20479;-79
2023/03/16 08:37:34;;;;;;;4.93;1.07;;;;;;;5.22;65.38;101764.72;5016421;28;21009;-78
2023/03/16 08:40:00;;;;;;;5.50;0.87;;;;;;;5.26;64.09;101772.06;5016255;28;20519;-78
2023/03/16 08:42:28;;;;;;;6.13;0.90;;;;;;;5.25;64.62;101773.13;5016489;28;20538;-79
2023/03/16 08:44:55;;;;;;;4.57;0.77;;;;;;;5.30;65.09;101770.53;5016328;28;20484;-78
2023/03/16 08:47:23;;;;;;;4.87;0.87;;;;;;;5.31;66.38;101771.34;5016128;28;20494;-78
2023/03/16 08:49:51;;;;;;;5.50;0.83;;;;;;;5.41;63.93;101779.66;5016234;28;20444;-78
2023/03/16 08:52:17;;;;;;;5.53;1.13;;;;;;;5.53;62.31;101776.91;5016635;28;20500;-81
2023/03/16 08:54:44;;;;;;;5.63;0.80;;;;;;;5.66;62.01;101781.19;5015517;28;20464;-78
2023/03/16 08:57:11;;;;;;;6.00;1.10;;;;;;;5.75;60.94;101785.16;5016087;28;20539;-79
2023/03/16 08:59:38;;;;;;;6.70;0.93;;;;;;;5.78;61.94;101777.44;5016840;28;20472;-79
2023/03/16 09:02:04;;;;;;;10.10;1.10;;;;;;;5.87;60.40;101782.44;5015792;28;20535;-78
2023/03/16 09:04:31;;;;;;;5.30;0.80;;;;;;;5.90;59.90;101781.97;5016042;28;20456;-79
2023/03/16 09:06:59;;;;;;;6.53;1.37;;;;;;;5.95;61.00;101782.09;5016021;28;20532;-78
2023/03/16 09:09:26;;;;;;;5.27;0.90;;;;;;;5.90;61.86;101781.97;5016214;28;20814;-79
2023/03/16 09:11:52;;;;;;;5.13;1.00;;;;;;;5.96;62.35;101786.41;5017018;28;20893;-79
2023/03/16 09:14:19;;;;;;;4.90;1.03;;;;;;;6.10;60.00;101787.72;5015885;28;20440;-78
2023/03/16 09:16:47;;;;;;;15.03;1.20;;;;;;;6.10;58.30;101786.91;5015738;28;20436;-80
2023/03/16 09:19:14;;;;;;;7.43;1.33;;;;;;;6.18;58.52;101787.34;5016971;28;20444;-79
2023/03/16 09:21:40;;;;;;;8.63;1.30;;;;;;;6.28;57.77;101790.19;5018855;28;20479;-80
2023/03/16 09:24:09;;;;;;;4.67;0.70;;;;;;;6.34;57.33;101793.00;5018294;28;20444;-79
2023/03/16 09:26:36;;;;;;;4.60;0.90;;;;;;;6.31;57.85;101795.09;5017581;28;20563;-79
2023/03/16 09:29:05;;;;;;;5.87;2.07;;;;;;;6.40;57.19;101803.59;5015993;28;20492;-79
2023/03/16 09:31:33;;;;;;;6.33;1.37;;;;;;;6.42;56.45;101800.66;5016060;28;20938;-79
2023/03/16 09:34:00;;;;;;;5.27;0.80;;;;;;;6.48;56.46;101791.63;5016282;28;20451;-78
2023/03/16 09:36:27;;;;;;;4.60;0.77;;;;;;;6.55;55.21;101806.56;5018660;28;20543;-80
2023/03/16 09:38:54;;;;;;;7.80;1.20;;;;;;;6.63;54.32;101807.22;5017934;28;20464;-79
2023/03/16 09:41:36;;;;;;;5.57;0.73;;;;;;;6.77;54.38;101808.50;5018261;28;20510;-78
2023/03/16 09:44:14;;;;;;;5.90;0.90;;;;;;;6.85;54.39;101809.97;5017119;28;20515;-78
2023/03/16 09:46:44;;;;;;;5.40;1.30;;;;;;;6.82;53.16;101795.16;5017949;28;20472;-79
2023/03/16 09:49:12;;;;;;;6.60;1.30;;;;;;;6.91;54.09;101800.94;5018909;28;20444;-78
2023/03/16 09:51:44;;;;;;;13.57;1.33;;;;;;;6.96;53.22;101798.31;5018317;28;20494;-79
2023/03/16 09:54:21;;;;;;;5.27;1.00;;;;;;;6.99;56.05;101805.88;5018494;28;20491;-79
2023/03/16 09:56:51;;;;;;;5.50;1.00;;;;;;;7.07;55.24;101800.09;5023872;28;20799;-82
2023/03/16 09:59:17;;;;;;;7.10;0.90;;;;;;;7.17;52.76;101797.56;5021309;28;20898;-78
2023/03/16 10:01:58;;;;;;;6.63;0.93;;;;;;;7.24;51.86;101811.66;5017089;28;20451;-78
2023/03/16 10:04:41;;;;;;;5.30;0.87;;;;;;;7.31;51.24;101806.09;5016345;28;20483;-78
2023/03/16 10:07:23;;;;;;;6.60;0.70;;;;;;;7.37;52.09;101805.09;5015971;28;20511;-78
2023/03/16 10:09:57;;;;;;;4.67;0.70;;;;;;;7.39;50.23;101800.25;5018731;28;20460;-77
2023/03/16 10:12:31;;;;;;;6.70;0.73;;;;;;;7.44;48.93;101802.22;5016989;28;20459;-78
2023/03/16 10:15:06;;;;;;;4.30;0.60;;;;;;;7.47;49.77;101797.13;5015390;28;20510;-78
2023/03/16 10:17:38;;;;;;;6.63;0.83;;;;;;;7.45;49.84;101803.84;5016607;28;20538;-78
2023/03/16 10:20:07;;;;;;;4.20;0.50;;;;;;;7.48;48.68;101800.63;5020397;28;20811;-77
2023/03/16 10:22:38;;;;;;;10.73;1.00;;;;;;;7.50;48.30;101801.22;5021967;28;20551;-79
2023/03/16 10:25:11;;;;;;;4.93;0.90;;;;;;;7.60;48.36;101795.94;5016045;28;20436;-79
2023/03/16 10:27:42;;;;;;;4.57;0.73;;;;;;;7.71;48.65;101788.81;5016130;28;20480;-78
2023/03/16 10:30:21;;;;;;;5.60;0.80;;;;;;;7.78;48.76;101792.09;5020351;28;20432;-78
2023/03/16 10:32:48;;;;;;;7.00;0.90;;;;;;;7.80;48.63;101790.78;5018733;28;20448;-78
2023/03/16 10:35:25;;;;;;;4.40;0.73;;;;;;;7.95;49.01;101797.41;5022173;28;20472;-78
2023/03/16 10:37:51;;;;;;;4.40;0.60;;;;;;;8.02;47.93;101803.44;5019025;28;20451;-78
2023/03/16 10:40:19;;;;;;;6.10;1.00;;;;;;;7.99;47.32;101785.88;5020556;28;20444;-79
2023/03/16 10:42:47;;;;;;;5.50;0.87;;;;;;;7.96;50.33;101780.16;5018855;28;20459;-78
2023/03/16 10:45:25;;;;;;;4.93;0.90;;;;;;;8.10;47.02;101784.06;5015239;28;20502;-78
2023/03/16 10:47:54;;;;;;;5.07;0.90;;;;;;;8.18;46.61;101780.94;5017050;28;20480;-78
2023/03/16 10:50:26;;;;;;;5.23;0.60;;;;;;;8.25;43.98;101791.53;5016567;28;20547;-79
2023/03/16 10:52:54;;;;;;;4.20;0.50;;;;;;;8.33;45.67;101778.38;5016701;28;20452;-78
2023/03/16 10:55:25;;;;;;;5.77;0.57;;;;;;;8.44;47.36;101778.50;5014917;28;20448;-78
2023/03/16 10:57:55;;;;;;;4.60;0.70;;;;;;;8.54;43.32;101787.50;5017580;28;20476;-77
2023/03/16 11:00:25;;;;;;;7.20;1.07;;;;;;;8.62;44.28;101785.38;5016305;28;20531;-77
2023/03/16 11:02:54;;;;;;;7.23;1.33;;;;;;;8.71;46.83;101781.94;5015488;28;20470;-78
2023/03/16 11:05:28;;;;;;;5.10;1.03;;;;;;;8.80;45.41;101782.28;5016641;28;20475;-77
2023/03/16 11:07:59;;;;;;;6.60;1.00;;;;;;;8.97;47.55;101782.13;5016055;28;20531;-78
2023/03/16 11:10:30;;;;;;;7.73;1.30;;;;;;;9.19;47.66;101782.81;5014345;28;20448;-77
2023/03/16 11:13:07;;;;;;;6.13;1.10;;;;;;;9.35;48.28;101771.00;5014711;28;20494;-78
2023/03/16 11:15:39;;;;;;;5.03;0.80;;;;;;;9.49;47.46;101768.63;5015579;28;20436;-76
2023/03/16 11:18:09;;;;;;;5.10;1.10;;;;;;;9.62;44.01;101775.44;5014523;28;20563;-78
2023/03/16 11:20:37;;;;;;;5.30;0.83;;;;;;;9.49;44.43;101765.13;5021017;28;20471;-79
2023/03/16 11:23:11;;;;;;;5.80;0.70;;;;;;;9.62;45.86;101771.94;5018336;28;20510;-77
2023/03/16 11:25:45;;;;;;;6.13;0.90;;;;;;;10.05;44.83;101765.28;5018038;28;20559;-77
2023/03/16 11:28:17;;;;;;;4.70;0.80;;;;;;;10.94;41.43;101772.06;5020292;28;20471;-78
2023/03/16 11:30:49;;;;;;;9.50;1.13;;;;;;;11.92;37.46;101761.69;5021582;28;20476;-79
2023/03/16 11:33:16;;;;;;;5.17;0.60;;;;;;;13.07;36.55;101773.78;5018752;28;20783;-79